createdAt,value
2018-05-07T00:01:13.056Z,14.00
2018-05-07T00:03:40.512Z,13.90
2018-05-07T00:06:08.087Z,14.00
2018-05-07T00:08:35.664Z,13.90
2018-05-07T00:11:03.999Z,13.90
2018-05-07T00:13:31.588Z,13.80
2018-05-07T00:15:59.189Z,13.80
2018-05-07T00:18:26.785Z,13.80
2018-05-07T00:20:54.353Z,13.80
2018-05-07T00:23:21.978Z,13.80
2018-05-07T00:25:49.571Z,13.70
2018-05-07T00:28:17.984Z,13.60
2018-05-07T00:30:46.308Z,13.60
2018-05-07T00:33:13.923Z,13.60
2018-05-07T00:35:41.517Z,13.60
2018-05-07T00:38:09.101Z,13.50
2018-05-07T00:40:36.642Z,13.50
2018-05-07T00:43:04.246Z,13.40
2018-05-07T00:45:32.556Z,13.40
2018-05-07T00:48:00.113Z,13.40
2018-05-07T00:50:27.747Z,13.40
2018-05-07T00:52:55.254Z,13.30
2018-05-07T00:55:22.828Z,13.30
2018-05-07T00:57:50.373Z,13.40
2018-05-07T01:00:17.958Z,13.30
2018-05-07T01:02:45.493Z,13.30
2018-05-07T01:05:13.071Z,13.30
2018-05-07T01:07:40.648Z,13.30
2018-05-07T01:10:08.212Z,13.20
2018-05-07T01:12:36.521Z,13.20
2018-05-07T01:15:04.099Z,13.20
2018-05-07T01:17:31.664Z,13.20
2018-05-07T01:19:59.257Z,13.20
2018-05-07T01:22:27.015Z,13.20
2018-05-07T01:24:54.594Z,13.10
2018-05-07T01:27:22.902Z,13.00
2018-05-07T01:29:50.435Z,13.00
2018-05-07T01:32:18.787Z,13.00
2018-05-07T01:34:46.335Z,13.00
2018-05-07T01:37:13.918Z,13.00
2018-05-07T01:39:42.257Z,13.00
2018-05-07T01:42:09.831Z,12.90
2018-05-07T01:44:37.443Z,12.90
2018-05-07T01:47:05.006Z,12.90
2018-05-07T01:49:33.043Z,12.90
2018-05-07T01:52:01.392Z,12.80
2018-05-07T01:54:28.934Z,12.80
2018-05-07T01:56:56.499Z,12.80
2018-05-07T01:59:24.118Z,12.80
2018-05-07T02:01:52.525Z,12.80
2018-05-07T02:04:20.082Z,12.80
2018-05-07T02:06:47.651Z,12.80
2018-05-07T02:09:15.192Z,12.80
2018-05-07T02:11:42.766Z,12.70
2018-05-07T02:14:10.363Z,12.70
2018-05-07T02:16:37.929Z,12.60
2018-05-07T02:19:06.274Z,12.60
2018-05-07T02:21:33.870Z,12.50
2018-05-07T02:24:02.202Z,12.50
2018-05-07T02:26:29.808Z,12.50
2018-05-07T02:28:58.145Z,12.50
2018-05-07T02:31:25.816Z,12.50
2018-05-07T02:33:53.389Z,12.50
2018-05-07T02:36:21.763Z,12.40
2018-05-07T02:38:49.405Z,12.40
2018-05-07T02:41:17.813Z,12.40
2018-05-07T02:43:46.205Z,12.40
2018-05-07T02:46:14.622Z,12.40
2018-05-07T02:48:42.209Z,12.30
2018-05-07T02:51:09.873Z,12.30
2018-05-07T02:53:37.512Z,12.30
2018-05-07T02:56:05.087Z,12.30
2018-05-07T02:58:32.703Z,12.30
2018-05-07T03:01:01.165Z,12.20
2018-05-07T03:03:29.532Z,12.20
2018-05-07T03:05:57.908Z,12.20
2018-05-07T03:08:26.322Z,12.20
2018-05-07T03:10:53.917Z,12.20
2018-05-07T03:13:21.540Z,12.20
2018-05-07T03:15:49.132Z,12.20
2018-05-07T03:18:16.713Z,12.20
2018-05-07T03:20:44.923Z,12.20
2018-05-07T03:23:12.493Z,12.20
2018-05-07T03:25:40.482Z,12.10
2018-05-07T03:28:08.106Z,12.10
2018-05-07T03:30:35.688Z,12.10
2018-05-07T03:33:03.318Z,12.10
2018-05-07T03:35:31.791Z,12.10
2018-05-07T03:37:59.367Z,12.10
2018-05-07T03:40:27.006Z,12.10
2018-05-07T03:42:55.389Z,12.10
2018-05-07T03:45:23.743Z,12.10
2018-05-07T03:47:51.412Z,12.10
2018-05-07T03:50:18.991Z,12.10
2018-05-07T03:52:47.339Z,12.10
2018-05-07T03:55:14.971Z,12.10
2018-05-07T03:57:42.551Z,12.10
2018-05-07T04:00:10.172Z,12.10
2018-05-07T04:02:37.752Z,12.20
2018-05-07T04:05:05.334Z,12.20
2018-05-07T04:07:32.940Z,12.20
2018-05-07T04:10:00.527Z,12.20
2018-05-07T04:12:28.136Z,12.20
2018-05-07T04:14:56.551Z,12.30
2018-05-07T04:17:36.107Z,12.20
2018-05-07T04:20:15.645Z,12.30
2018-05-07T04:22:55.219Z,12.30
2018-05-07T04:25:22.865Z,12.30
2018-05-07T04:27:50.491Z,12.40
2018-05-07T04:30:18.077Z,12.40
2018-05-07T04:32:45.704Z,12.40
2018-05-07T04:35:13.287Z,12.50
2018-05-07T04:37:40.896Z,12.60
2018-05-07T04:40:09.275Z,12.80
2018-05-07T04:42:37.659Z,12.80
2018-05-07T04:45:06.062Z,12.90
2018-05-07T04:47:34.181Z,12.90
2018-05-07T04:50:01.837Z,13.00
2018-05-07T04:52:29.476Z,13.10
2018-05-07T04:54:57.063Z,13.20
2018-05-07T04:57:25.106Z,13.30
2018-05-07T04:59:56.735Z,13.40
2018-05-07T05:02:24.441Z,13.40
2018-05-07T05:04:52.059Z,13.50
2018-05-07T05:07:19.641Z,13.60
2018-05-07T05:09:47.313Z,13.70
2018-05-07T05:12:14.923Z,13.80
2018-05-07T05:14:43.336Z,14.10
2018-05-07T05:17:10.957Z,14.00
2018-05-07T05:19:39.341Z,14.30
2018-05-07T05:22:06.928Z,14.20
2018-05-07T05:24:34.577Z,14.40
2018-05-07T05:27:02.200Z,14.50
2018-05-07T05:29:30.586Z,14.70
2018-05-07T05:31:59.006Z,14.80
2018-05-07T05:34:26.723Z,14.80
2018-05-07T05:36:55.148Z,15.10
2018-05-07T05:39:22.729Z,15.10
2018-05-07T05:41:50.327Z,15.20
2018-05-07T05:44:18.832Z,15.50
2018-05-07T05:46:46.466Z,15.50
2018-05-07T05:49:14.822Z,15.70
2018-05-07T05:51:42.450Z,15.70
2018-05-07T05:54:10.072Z,15.90
2018-05-07T05:56:37.709Z,16.00
2018-05-07T05:59:05.356Z,16.10
2018-05-07T06:01:33.007Z,16.20
2018-05-07T06:04:00.686Z,16.40
2018-05-07T06:06:28.287Z,16.50
2018-05-07T06:08:56.181Z,16.60
2018-05-07T06:11:23.733Z,16.70
2018-05-07T06:13:51.399Z,16.90
2018-05-07T06:16:19.062Z,17.00
2018-05-07T06:18:46.641Z,17.10
2018-05-07T06:21:14.421Z,17.30
2018-05-07T06:23:42.021Z,17.40
2018-05-07T06:26:09.629Z,17.50
2018-05-07T06:28:37.210Z,17.60
2018-05-07T06:31:05.621Z,17.80
2018-05-07T06:33:33.195Z,17.80
2018-05-07T06:36:00.810Z,17.90
2018-05-07T06:38:29.186Z,18.00
2018-05-07T06:40:57.809Z,18.00
2018-05-07T06:43:25.405Z,18.00
2018-05-07T06:45:53.102Z,18.10
2018-05-07T06:48:21.496Z,18.30
2018-05-07T06:50:49.117Z,18.30
2018-05-07T06:53:16.747Z,18.40
2018-05-07T06:55:44.376Z,18.60
2018-05-07T06:58:12.044Z,18.70
2018-05-07T07:00:39.687Z,18.80
2018-05-07T07:03:07.281Z,19.00
2018-05-07T07:05:34.944Z,19.10
2018-05-07T07:08:02.668Z,19.20
2018-05-07T07:10:30.192Z,19.30
2018-05-07T07:12:58.092Z,19.50
2018-05-07T07:15:26.461Z,19.70
2018-05-07T07:17:55.449Z,19.70
2018-05-07T07:20:24.354Z,19.90
2018-05-07T07:22:52.703Z,20.10
2018-05-07T07:25:20.380Z,20.10
2018-05-07T07:27:48.742Z,20.20
2018-05-07T07:30:16.352Z,20.30
2018-05-07T07:32:43.980Z,20.40
2018-05-07T07:35:12.336Z,20.50
2018-05-07T07:37:40.792Z,20.50
2018-05-07T07:40:08.426Z,20.70
2018-05-07T07:42:36.057Z,20.70
2018-05-07T07:45:04.403Z,21.00
2018-05-07T07:47:32.064Z,21.00
2018-05-07T07:49:59.699Z,21.00
2018-05-07T07:52:27.337Z,20.90
2018-05-07T07:54:54.946Z,21.00
2018-05-07T07:57:23.360Z,21.10
2018-05-07T07:59:51.712Z,21.30
2018-05-07T08:02:19.311Z,21.20
2018-05-07T08:04:46.887Z,21.30
2018-05-07T08:07:14.519Z,21.50
2018-05-07T08:09:42.907Z,21.70
2018-05-07T08:12:10.538Z,21.70
2018-05-07T08:14:38.905Z,22.00
2018-05-07T08:17:07.290Z,22.00
2018-05-07T08:19:34.908Z,21.90
2018-05-07T08:22:02.491Z,22.00
2018-05-07T08:24:30.093Z,22.10
2018-05-07T08:26:58.487Z,22.20
2018-05-07T08:29:26.088Z,22.10
2018-05-07T08:31:53.737Z,22.10
2018-05-07T08:34:21.326Z,22.20
2018-05-07T08:36:48.958Z,22.20
2018-05-07T08:39:16.680Z,22.10
2018-05-07T08:41:44.300Z,22.10
2018-05-07T08:44:11.886Z,22.30
2018-05-07T08:46:40.279Z,22.60
2018-05-07T08:49:08.672Z,22.60
2018-05-07T08:51:36.281Z,22.60
2018-05-07T08:54:04.715Z,22.60
2018-05-07T08:56:32.307Z,22.50
2018-05-07T08:59:04.878Z,22.50
2018-05-07T09:01:32.485Z,22.40
2018-05-07T09:04:00.865Z,22.30
2018-05-07T09:06:28.661Z,22.30
2018-05-07T09:08:56.245Z,22.40
2018-05-07T09:11:23.823Z,22.50
2018-05-07T09:13:51.469Z,22.50
2018-05-07T09:16:19.082Z,22.60
2018-05-07T09:18:46.668Z,22.60
2018-05-07T09:21:14.277Z,22.60
2018-05-07T09:23:42.629Z,22.70
2018-05-07T09:26:10.264Z,22.60
2018-05-07T09:28:37.896Z,22.50
2018-05-07T09:31:05.672Z,22.50
2018-05-07T09:33:37.337Z,22.70
2018-05-07T09:36:07.235Z,22.70
2018-05-07T09:38:37.393Z,22.90
2018-05-07T09:41:09.261Z,23.00
2018-05-07T09:43:39.649Z,22.90
2018-05-07T09:46:12.958Z,22.80
2018-05-07T09:48:43.456Z,22.80
2018-05-07T09:51:11.796Z,22.70
2018-05-07T09:53:39.375Z,22.80
2018-05-07T09:56:07.750Z,23.10
2018-05-07T09:58:36.713Z,23.00
2018-05-07T10:01:04.311Z,23.00
2018-05-07T10:03:32.704Z,23.00
2018-05-07T10:06:00.319Z,23.00
2018-05-07T10:08:27.956Z,23.10
2018-05-07T10:10:55.705Z,23.10
2018-05-07T10:13:23.284Z,23.20
2018-05-07T10:15:51.784Z,23.30
2018-05-07T10:18:19.481Z,23.30
2018-05-07T10:20:47.079Z,23.40
2018-05-07T10:23:14.704Z,23.50
2018-05-07T10:25:42.347Z,23.60
2018-05-07T10:28:10.714Z,23.40
2018-05-07T10:30:39.069Z,23.20
2018-05-07T10:33:06.705Z,23.20
2018-05-07T10:35:34.326Z,23.10
2018-05-07T10:38:02.746Z,22.90
2018-05-07T10:40:30.420Z,22.80
2018-05-07T10:42:58.347Z,22.80
2018-05-07T10:45:26.052Z,22.80
2018-05-07T10:47:53.671Z,23.00
2018-05-07T10:50:21.280Z,23.10
2018-05-07T10:52:48.936Z,23.00
2018-05-07T10:55:16.568Z,22.90
2018-05-07T10:57:44.194Z,22.80
2018-05-07T11:00:11.811Z,22.70
2018-05-07T11:02:39.438Z,22.70
2018-05-07T11:05:07.737Z,22.80
2018-05-07T11:07:35.380Z,23.00
2018-05-07T11:10:03.753Z,23.00
2018-05-07T11:12:31.353Z,23.00
2018-05-07T11:14:58.973Z,22.90
2018-05-07T11:17:26.581Z,22.90
2018-05-07T11:19:54.883Z,22.90
2018-05-07T11:22:23.263Z,22.90
2018-05-07T11:24:51.656Z,23.00
2018-05-07T11:27:19.307Z,23.00
2018-05-07T11:29:46.911Z,23.00
2018-05-07T11:32:14.491Z,23.00
2018-05-07T11:34:43.621Z,23.10
2018-05-07T11:37:11.256Z,23.00
2018-05-07T11:39:39.622Z,23.20
2018-05-07T11:42:07.231Z,23.20
2018-05-07T11:44:34.879Z,23.20
2018-05-07T11:47:02.456Z,23.30
2018-05-07T11:49:30.062Z,23.30
2018-05-07T11:51:57.673Z,23.40
2018-05-07T11:54:25.299Z,23.50
2018-05-07T11:56:53.659Z,23.70
2018-05-07T11:59:21.326Z,23.70
2018-05-07T12:01:48.952Z,23.90
2018-05-07T12:04:16.647Z,23.90
2018-05-07T12:06:45.270Z,24.00
2018-05-07T12:09:12.971Z,24.00
2018-05-07T12:11:40.549Z,24.10
2018-05-07T12:14:09.221Z,24.70
2018-05-07T12:16:36.842Z,24.80
2018-05-07T12:19:04.832Z,25.40
2018-05-07T12:21:32.475Z,26.30
2018-05-07T12:24:00.076Z,27.00
2018-05-07T12:26:27.741Z,27.40
2018-05-07T12:28:55.360Z,27.80
2018-05-07T12:31:23.001Z,28.70
2018-05-07T12:33:50.679Z,29.50
2018-05-07T12:36:18.278Z,30.20
2018-05-07T12:38:45.893Z,30.60
2018-05-07T12:41:13.560Z,30.80
2018-05-07T12:43:41.163Z,31.40
2018-05-07T12:46:08.800Z,32.30
2018-05-07T12:48:36.517Z,32.70
2018-05-07T12:51:04.936Z,33.70
2018-05-07T12:53:32.520Z,33.60
2018-05-07T12:56:00.165Z,34.60
2018-05-07T12:58:27.797Z,35.30
2018-05-07T13:00:55.415Z,35.70
2018-05-07T13:03:23.845Z,34.40
2018-05-07T13:05:51.498Z,34.30
2018-05-07T13:08:19.094Z,34.90
2018-05-07T13:10:46.741Z,35.60
2018-05-07T13:13:14.363Z,36.40
2018-05-07T13:15:42.738Z,37.30
2018-05-07T13:18:11.138Z,36.80
2018-05-07T13:20:38.924Z,36.80
2018-05-07T13:23:06.740Z,36.90
2018-05-07T13:25:35.126Z,36.50
2018-05-07T13:28:03.508Z,37.80
2018-05-07T13:30:31.127Z,37.80
2018-05-07T13:33:00.276Z,38.50
2018-05-07T13:35:27.903Z,38.50
2018-05-07T13:37:56.320Z,39.90
2018-05-07T13:40:23.929Z,39.80
2018-05-07T13:42:53.025Z,38.50
2018-05-07T13:45:20.649Z,38.50
2018-05-07T13:47:48.265Z,38.40
2018-05-07T13:50:16.622Z,38.20
2018-05-07T13:52:44.245Z,38.20
2018-05-07T13:55:12.635Z,38.10
2018-05-07T13:57:40.240Z,38.10
2018-05-07T14:00:08.635Z,38.60
2018-05-07T14:02:36.259Z,38.60
2018-05-07T14:05:08.823Z,38.50
2018-05-07T14:07:39.320Z,38.10
2018-05-07T14:10:07.054Z,38.10
2018-05-07T14:12:34.812Z,39.20
2018-05-07T14:15:03.263Z,40.40
2018-05-07T14:17:31.886Z,40.40
2018-05-07T14:19:59.553Z,40.60
2018-05-07T14:22:30.274Z,41.10
2018-05-07T14:24:57.898Z,41.10
2018-05-07T14:27:26.751Z,40.90
2018-05-07T14:29:58.329Z,40.70
2018-05-07T14:32:26.531Z,41.20
2018-05-07T14:34:54.995Z,41.70
2018-05-07T14:37:23.423Z,41.60
2018-05-07T14:39:51.005Z,41.50
2018-05-07T14:42:18.585Z,40.20
2018-05-07T14:44:46.345Z,40.60
2018-05-07T14:47:16.233Z,42.70
2018-05-07T14:49:43.824Z,42.70
2018-05-07T14:52:11.507Z,42.80
2018-05-07T14:54:39.084Z,43.20
2018-05-07T14:57:07.460Z,43.30
2018-05-07T14:59:35.092Z,43.20
2018-05-07T15:02:02.718Z,43.50
2018-05-07T15:04:30.310Z,41.90
2018-05-07T15:06:58.329Z,41.10
2018-05-07T15:09:25.917Z,40.60
2018-05-07T15:11:53.521Z,39.90
2018-05-07T15:14:22.773Z,38.90
2018-05-07T15:16:50.397Z,38.90
2018-05-07T15:19:17.976Z,39.60
2018-05-07T15:21:45.599Z,40.10
2018-05-07T15:24:13.975Z,41.40
2018-05-07T15:26:42.354Z,42.20
2018-05-07T15:29:10.820Z,41.90
2018-05-07T15:31:38.457Z,41.90
2018-05-07T15:34:06.107Z,42.60
2018-05-07T15:36:33.700Z,42.10
2018-05-07T15:39:02.057Z,42.80
2018-05-07T15:41:29.743Z,42.70
2018-05-07T15:43:58.280Z,42.90
2018-05-07T15:46:25.920Z,42.90
2018-05-07T15:48:53.769Z,43.10
2018-05-07T15:51:22.157Z,43.10
2018-05-07T15:53:49.792Z,43.10
2018-05-07T15:56:17.493Z,43.60
2018-05-07T15:58:45.849Z,43.30
2018-05-07T16:01:14.234Z,42.50
2018-05-07T16:03:41.874Z,42.40
2018-05-07T16:06:10.257Z,42.40
2018-05-07T16:08:38.090Z,42.40
2018-05-07T16:11:05.725Z,42.20
2018-05-07T16:13:33.356Z,42.30
2018-05-07T16:16:01.754Z,38.80
2018-05-07T16:18:29.381Z,38.70
2018-05-07T16:20:57.727Z,34.10
2018-05-07T16:23:25.363Z,34.00
2018-05-07T16:25:52.946Z,32.40
2018-05-07T16:28:20.600Z,31.40
2018-05-07T16:30:48.932Z,30.50
2018-05-07T16:33:16.553Z,29.90
2018-05-07T16:35:45.781Z,28.30
2018-05-07T16:38:14.205Z,27.50
2018-05-07T16:40:41.857Z,27.50
2018-05-07T16:43:09.523Z,27.10
2018-05-07T16:45:44.834Z,26.70
2018-05-07T16:48:12.461Z,26.50
2018-05-07T16:50:40.073Z,26.20
2018-05-07T16:53:07.730Z,25.90
2018-05-07T16:55:35.392Z,25.80
2018-05-07T16:58:03.757Z,25.60
2018-05-07T17:00:32.137Z,25.60
2018-05-07T17:02:59.730Z,25.50
2018-05-07T17:05:27.328Z,25.20
2018-05-07T17:07:55.750Z,25.10
2018-05-07T17:10:23.611Z,25.00
2018-05-07T17:12:51.231Z,25.00
2018-05-07T17:15:19.620Z,24.80
2018-05-07T17:17:47.997Z,24.70
2018-05-07T17:20:16.523Z,24.70
2018-05-07T17:22:44.103Z,24.70
2018-05-07T17:25:11.930Z,24.70
2018-05-07T17:27:39.574Z,24.60
2018-05-07T17:30:07.987Z,24.30
2018-05-07T17:32:36.309Z,24.20
2018-05-07T17:35:04.687Z,24.20
2018-05-07T17:37:33.044Z,23.90
2018-05-07T17:40:00.643Z,23.90
2018-05-07T17:42:29.043Z,23.80
2018-05-07T17:44:59.394Z,23.80
2018-05-07T17:47:39.020Z,23.80
2018-05-07T17:50:06.658Z,23.70
2018-05-07T17:52:34.301Z,23.70
2018-05-07T17:55:02.842Z,23.60
2018-05-07T17:57:30.459Z,23.60
2018-05-07T17:59:58.144Z,23.60
2018-05-07T18:02:26.705Z,23.40
2018-05-07T18:04:54.349Z,23.40
2018-05-07T18:07:21.997Z,23.30
2018-05-07T18:09:50.379Z,23.20
2018-05-07T18:12:18.767Z,23.10
2018-05-07T18:14:47.136Z,23.00
2018-05-07T18:17:15.523Z,22.90
2018-05-07T18:19:43.869Z,22.90
2018-05-07T18:22:11.593Z,22.80
2018-05-07T18:24:39.187Z,22.80
2018-05-07T18:27:06.771Z,22.70
2018-05-07T18:29:35.156Z,22.50
2018-05-07T18:32:03.533Z,22.40
2018-05-07T18:34:31.885Z,22.30
2018-05-07T18:36:59.486Z,22.30
2018-05-07T18:39:27.124Z,22.30
2018-05-07T18:44:29.672Z,22.00
2018-05-07T18:46:57.305Z,22.00
2018-05-07T18:49:25.693Z,21.90
2018-05-07T18:51:53.275Z,21.80
2018-05-07T18:54:22.051Z,21.70
2018-05-07T18:56:51.681Z,21.60
2018-05-07T18:59:20.053Z,21.60
2018-05-07T19:01:48.238Z,21.40
2018-05-07T19:04:15.839Z,21.40
2018-05-07T19:06:44.264Z,21.30
2018-05-07T19:09:12.001Z,21.20
2018-05-07T19:11:39.609Z,21.20
2018-05-07T19:14:13.144Z,21.10
2018-05-07T19:16:42.904Z,21.00
2018-05-07T19:19:11.274Z,20.90
2018-05-07T19:21:38.888Z,20.90
2018-05-07T19:24:06.494Z,20.90
2018-05-07T19:26:34.453Z,20.80
2018-05-07T19:29:02.665Z,20.80
2018-05-07T19:31:30.351Z,20.70
2018-05-07T19:33:59.341Z,20.50
2018-05-07T19:36:26.936Z,20.50
2018-05-07T19:38:57.406Z,20.50
2018-05-07T19:41:25.848Z,20.40
2018-05-07T19:43:53.527Z,20.30
2018-05-07T19:46:21.151Z,20.30
2018-05-07T19:48:48.799Z,20.30
2018-05-07T19:51:17.351Z,20.20
2018-05-07T19:53:45.739Z,20.10
2018-05-07T19:56:14.162Z,20.00
2018-05-07T19:58:41.841Z,20.00
2018-05-07T20:01:09.431Z,20.00
2018-05-07T20:03:37.794Z,19.90
2018-05-07T20:06:06.215Z,19.80
2018-05-07T20:08:33.852Z,19.80
2018-05-07T20:11:02.236Z,19.70
2018-05-07T20:13:30.660Z,19.70
2018-05-07T20:15:58.229Z,19.60
2018-05-07T20:18:25.832Z,19.60
2018-05-07T20:20:54.289Z,19.50
2018-05-07T20:23:21.901Z,19.50
2018-05-07T20:25:49.573Z,19.40
2018-05-07T20:28:17.236Z,19.40
2018-05-07T20:30:44.823Z,19.30
2018-05-07T20:33:12.480Z,19.30
2018-05-07T20:35:40.099Z,19.20
2018-05-07T20:38:07.797Z,19.20
2018-05-07T20:40:35.462Z,19.20
2018-05-07T20:43:03.090Z,19.10
2018-05-07T20:45:30.675Z,19.10
2018-05-07T20:47:58.259Z,19.00
2018-05-07T20:50:26.686Z,18.90
2018-05-07T20:52:54.273Z,18.90
2018-05-07T20:55:21.870Z,18.90
2018-05-07T20:57:56.751Z,18.80
2018-05-07T21:00:24.944Z,18.80
2018-05-07T21:02:52.611Z,18.80
2018-05-07T21:05:21.750Z,18.70
2018-05-07T21:07:49.385Z,18.70
2018-05-07T21:10:18.004Z,18.60
2018-05-07T21:12:45.790Z,18.60
2018-05-07T21:15:13.385Z,18.60
2018-05-07T21:17:40.995Z,18.60
2018-05-07T21:20:08.627Z,18.60
2018-05-07T21:22:36.917Z,18.60
2018-05-07T21:25:04.552Z,18.60
2018-05-07T21:27:32.932Z,18.50
2018-05-07T21:30:01.376Z,18.50
2018-05-07T21:32:28.989Z,18.50
2018-05-07T21:34:56.598Z,18.50
2018-05-07T21:37:24.231Z,18.50
2018-05-07T21:39:53.309Z,18.40
2018-05-07T21:42:20.930Z,18.40
2018-05-07T21:44:48.631Z,18.40
2018-05-07T21:47:16.240Z,18.30
2018-05-07T21:49:43.816Z,18.30
2018-05-07T21:52:11.440Z,18.30
2018-05-07T21:54:39.046Z,18.20
2018-05-07T21:57:07.422Z,18.10
2018-05-07T21:59:35.987Z,18.10
2018-05-07T22:02:03.571Z,18.00
2018-05-07T22:04:31.937Z,17.90
2018-05-07T22:06:59.518Z,17.90
2018-05-07T22:09:27.860Z,17.80
2018-05-07T22:11:55.503Z,17.70
2018-05-07T22:14:23.597Z,17.70
2018-05-07T22:16:52.008Z,17.60
2018-05-07T22:19:20.392Z,17.60
2018-05-07T22:21:47.993Z,17.50
2018-05-07T22:24:16.375Z,17.40
2018-05-07T22:26:43.967Z,17.40
2018-05-07T22:29:12.313Z,17.30
2018-05-07T22:31:39.924Z,17.30
2018-05-07T22:34:07.613Z,17.30
2018-05-07T22:36:35.224Z,17.20
2018-05-07T22:39:03.688Z,17.20
2018-05-07T22:41:31.264Z,17.10
2018-05-07T22:43:59.618Z,17.10
2018-05-07T22:46:27.265Z,17.00
2018-05-07T22:48:54.904Z,17.00
2018-05-07T22:51:23.226Z,16.90
2018-05-07T22:53:50.954Z,16.90
2018-05-07T22:56:18.609Z,16.90
2018-05-07T22:58:46.208Z,16.90
2018-05-07T23:01:15.385Z,16.80
2018-05-07T23:03:42.997Z,16.80
2018-05-07T23:06:10.613Z,16.80
2018-05-07T23:08:40.146Z,16.80
2018-05-07T23:11:08.539Z,16.70
2018-05-07T23:13:36.153Z,16.70
2018-05-07T23:16:03.804Z,16.70
2018-05-07T23:18:31.425Z,16.60
2018-05-07T23:20:59.090Z,16.60
2018-05-07T23:23:26.740Z,16.50
2018-05-07T23:25:54.388Z,16.50
2018-05-07T23:28:22.768Z,16.40
2018-05-07T23:30:51.149Z,16.40
2018-05-07T23:33:19.525Z,16.30
2018-05-07T23:35:47.900Z,16.30
2018-05-07T23:38:16.288Z,16.30
2018-05-07T23:40:43.908Z,16.20
2018-05-07T23:43:11.495Z,16.20
2018-05-07T23:45:39.940Z,16.20
2018-05-07T23:48:07.545Z,16.20
2018-05-07T23:50:35.919Z,16.10
2018-05-07T23:53:04.341Z,16.10
2018-05-07T23:55:31.960Z,16.10
2018-05-07T23:57:59.582Z,16.10
